sensor_id;sensor_type;location;lat;lon;timestamp;pressure;altitude;pressure_sealevel;temperature;humidity
57859;BME280;49153;45.568;11.894;2022-11-13T00:00:52;102494.91;;;12.26;77.53
57859;BME280;49153;45.568;11.894;2022-11-13T00:03:17;102485.47;;;12.20;77.60
57859;BME280;49153;45.568;11.894;2022-11-13T00:05:43;102487.50;;;12.15;76.42
57859;BME280;49153;45.568;11.894;2022-11-13T00:08:08;102478.47;;;12.19;76.66
57859;BME280;49153;45.568;11.894;2022-11-13T00:10:34;102490.75;;;12.20;76.45
57859;BME280;49153;45.568;11.894;2022-11-13T00:12:59;102479.44;;;12.17;75.72
57859;BME280;49153;45.568;11.894;2022-11-13T00:15:25;102468.34;;;12.10;75.41
57859;BME280;49153;45.568;11.894;2022-11-13T00:17:50;102474.31;;;12.14;75.22
57859;BME280;49153;45.568;11.894;2022-11-13T00:20:17;102474.25;;;12.15;75.05
57859;BME280;49153;45.568;11.894;2022-11-13T00:22:43;102479.56;;;12.15;74.88
57859;BME280;49153;45.568;11.894;2022-11-13T00:25:09;102486.69;;;12.13;75.09
57859;BME280;49153;45.568;11.894;2022-11-13T00:27:34;102488.25;;;12.17;74.64
57859;BME280;49153;45.568;11.894;2022-11-13T00:30:00;102480.94;;;12.05;74.43
57859;BME280;49153;45.568;11.894;2022-11-13T00:32:25;102490.44;;;12.09;75.18
57859;BME280;49153;45.568;11.894;2022-11-13T00:34:51;102496.03;;;12.03;75.58
57859;BME280;49153;45.568;11.894;2022-11-13T00:37:17;102496.16;;;12.00;75.79
57859;BME280;49153;45.568;11.894;2022-11-13T00:39:42;102479.47;;;11.81;76.00
57859;BME280;49153;45.568;11.894;2022-11-13T00:42:07;102489.75;;;11.87;76.01
57859;BME280;49153;45.568;11.894;2022-11-13T00:44:33;102492.56;;;11.84;76.00
57859;BME280;49153;45.568;11.894;2022-11-13T00:46:58;102492.88;;;11.78;76.18
57859;BME280;49153;45.568;11.894;2022-11-13T00:49:24;102488.50;;;11.77;76.36
57859;BME280;49153;45.568;11.894;2022-11-13T00:51:49;102484.13;;;11.76;76.54
57859;BME280;49153;45.568;11.894;2022-11-13T00:54:14;102474.69;;;11.70;76.55
57859;BME280;49153;45.568;11.894;2022-11-13T00:56:40;102473.19;;;11.65;76.41
57859;BME280;49153;45.568;11.894;2022-11-13T00:59:05;102475.13;;;11.61;76.14
57859;BME280;49153;45.568;11.894;2022-11-13T01:01:31;102490.13;;;11.61;76.84
57859;BME280;49153;45.568;11.894;2022-11-13T01:03:56;102472.19;;;11.49;76.76
57859;BME280;49153;45.568;11.894;2022-11-13T01:06:25;102478.84;;;11.38;76.79
57859;BME280;49153;45.568;11.894;2022-11-13T01:08:53;102479.97;;;11.33;76.87
57859;BME280;49153;45.568;11.894;2022-11-13T01:11:22;102473.47;;;11.21;77.00
57859;BME280;49153;45.568;11.894;2022-11-13T01:13:50;102467.84;;;11.10;77.29
57859;BME280;49153;45.568;11.894;2022-11-13T01:16:17;102467.25;;;11.04;77.57
57859;BME280;49153;45.568;11.894;2022-11-13T01:18:43;102475.19;;;11.04;77.59
57859;BME280;49153;45.568;11.894;2022-11-13T01:21:15;102458.91;;;10.94;77.63
57859;BME280;49153;45.568;11.894;2022-11-13T01:23:41;102462.53;;;10.91;77.49
57859;BME280;49153;45.568;11.894;2022-11-13T01:26:19;102461.81;;;10.88;77.90
57859;BME280;49153;45.568;11.894;2022-11-13T01:28:45;102468.22;;;10.82;77.68
57859;BME280;49153;45.568;11.894;2022-11-13T01:31:14;102456.09;;;10.78;77.65
57859;BME280;49153;45.568;11.894;2022-11-13T01:33:41;102465.63;;;10.81;77.81
57859;BME280;49153;45.568;11.894;2022-11-13T01:36:11;102466.50;;;10.81;78.06
57859;BME280;49153;45.568;11.894;2022-11-13T01:38:36;102453.50;;;10.77;78.08
57859;BME280;49153;45.568;11.894;2022-11-13T01:41:02;102453.50;;;10.77;78.06
57859;BME280;49153;45.568;11.894;2022-11-13T01:43:34;102470.06;;;10.80;78.01
57859;BME280;49153;45.568;11.894;2022-11-13T01:48:41;102459.91;;;10.71;77.71
57859;BME280;49153;45.568;11.894;2022-11-13T01:51:15;102446.66;;;10.73;77.88
57859;BME280;49153;45.568;11.894;2022-11-13T01:53:43;102464.34;;;10.71;77.97
57859;BME280;49153;45.568;11.894;2022-11-13T01:56:10;102455.91;;;10.63;77.10
57859;BME280;49153;45.568;11.894;2022-11-13T01:58:36;102462.75;;;10.67;77.86
57859;BME280;49153;45.568;11.894;2022-11-13T02:01:02;102452.53;;;10.59;77.74
57859;BME280;49153;45.568;11.894;2022-11-13T02:03:27;102453.84;;;10.49;77.28
57859;BME280;49153;45.568;11.894;2022-11-13T02:05:53;102445.47;;;10.39;77.42
57859;BME280;49153;45.568;11.894;2022-11-13T02:08:19;102445.53;;;10.38;77.90
57859;BME280;49153;45.568;11.894;2022-11-13T02:10:44;102440.47;;;10.33;78.11
57859;BME280;49153;45.568;11.894;2022-11-13T02:13:10;102448.19;;;10.38;77.85
57859;BME280;49153;45.568;11.894;2022-11-13T02:15:38;102452.34;;;10.43;78.11
57859;BME280;49153;45.568;11.894;2022-11-13T02:18:04;102446.41;;;10.38;77.50
57859;BME280;49153;45.568;11.894;2022-11-13T02:21:05;102434.47;;;10.30;78.11
57859;BME280;49153;45.568;11.894;2022-11-13T02:23:53;102433.63;;;10.29;77.82
57859;BME280;49153;45.568;11.894;2022-11-13T02:26:25;102432.59;;;10.32;77.60
57859;BME280;49153;45.568;11.894;2022-11-13T02:28:51;102422.41;;;10.24;78.09
57859;BME280;49153;45.568;11.894;2022-11-13T02:31:17;102438.09;;;10.27;77.68
57859;BME280;49153;45.568;11.894;2022-11-13T02:33:42;102419.09;;;10.19;77.31
57859;BME280;49153;45.568;11.894;2022-11-13T02:36:09;102432.69;;;10.30;77.32
57859;BME280;49153;45.568;11.894;2022-11-13T02:38:36;102415.03;;;10.10;77.21
57859;BME280;49153;45.568;11.894;2022-11-13T02:41:03;102402.25;;;10.01;77.64
57859;BME280;49153;45.568;11.894;2022-11-13T02:43:28;102417.09;;;10.04;77.53
57859;BME280;49153;45.568;11.894;2022-11-13T02:45:54;102414.56;;;10.01;78.00
57859;BME280;49153;45.568;11.894;2022-11-13T02:48:19;102410.34;;;9.97;77.66
57859;BME280;49153;45.568;11.894;2022-11-13T02:50:45;102427.78;;;9.99;77.84
57859;BME280;49153;45.568;11.894;2022-11-13T02:53:11;102402.06;;;9.84;77.46
57859;BME280;49153;45.568;11.894;2022-11-13T02:55:36;102420.75;;;10.00;77.82
57859;BME280;49153;45.568;11.894;2022-11-13T02:58:01;102433.81;;;10.03;77.21
57859;BME280;49153;45.568;11.894;2022-11-13T03:00:27;102397.91;;;9.79;77.30
57859;BME280;49153;45.568;11.894;2022-11-13T03:02:52;102428.94;;;9.94;77.52
57859;BME280;49153;45.568;11.894;2022-11-13T03:05:18;102431.69;;;9.91;77.13
57859;BME280;49153;45.568;11.894;2022-11-13T03:07:43;102410.63;;;9.69;76.96
57859;BME280;49153;45.568;11.894;2022-11-13T03:10:10;102396.78;;;9.64;77.49
57859;BME280;49153;45.568;11.894;2022-11-13T03:12:36;102411.66;;;9.65;77.36
57859;BME280;49153;45.568;11.894;2022-11-13T03:15:01;102427.22;;;9.71;77.85
57859;BME280;49153;45.568;11.894;2022-11-13T03:17:29;102420.53;;;9.62;77.56
57859;BME280;49153;45.568;11.894;2022-11-13T03:19:55;102424.91;;;9.63;78.05
57859;BME280;49153;45.568;11.894;2022-11-13T03:22:20;102416.31;;;9.58;77.86
57859;BME280;49153;45.568;11.894;2022-11-13T03:24:46;102412.78;;;9.59;77.69
57859;BME280;49153;45.568;11.894;2022-11-13T03:27:11;102402.59;;;9.50;77.89
57859;BME280;49153;45.568;11.894;2022-11-13T03:29:37;102421.47;;;9.61;77.81
57859;BME280;49153;45.568;11.894;2022-11-13T03:32:02;102418.75;;;9.63;77.57
57859;BME280;49153;45.568;11.894;2022-11-13T03:34:28;102408.75;;;9.51;77.92
57859;BME280;49153;45.568;11.894;2022-11-13T03:36:53;102425.03;;;9.60;77.66
57859;BME280;49153;45.568;11.894;2022-11-13T03:39:18;102416.56;;;9.52;77.80
57859;BME280;49153;45.568;11.894;2022-11-13T03:41:44;102417.75;;;9.45;77.65
57859;BME280;49153;45.568;11.894;2022-11-13T03:44:09;102425.06;;;9.37;77.94
57859;BME280;49153;45.568;11.894;2022-11-13T03:46:34;102418.16;;;9.35;78.27
57859;BME280;49153;45.568;11.894;2022-11-13T03:49:00;102441.56;;;9.42;78.05
57859;BME280;49153;45.568;11.894;2022-11-13T03:51:25;102416.97;;;9.20;77.72
57859;BME280;49153;45.568;11.894;2022-11-13T03:53:51;102420.41;;;9.22;78.26
57859;BME280;49153;45.568;11.894;2022-11-13T03:56:16;102428.53;;;9.16;77.93
57859;BME280;49153;45.568;11.894;2022-11-13T03:58:41;102432.25;;;9.10;78.21
57859;BME280;49153;45.568;11.894;2022-11-13T04:01:07;102419.41;;;9.03;78.50
57859;BME280;49153;45.568;11.894;2022-11-13T04:03:32;102409.44;;;8.87;78.38
57859;BME280;49153;45.568;11.894;2022-11-13T04:05:58;102421.34;;;8.98;79.22
57859;BME280;49153;45.568;11.894;2022-11-13T04:08:23;102399.81;;;8.86;79.12
57859;BME280;49153;45.568;11.894;2022-11-13T04:10:49;102386.84;;;8.82;78.79
57859;BME280;49153;45.568;11.894;2022-11-13T04:13:14;102394.53;;;8.88;79.19
57859;BME280;49153;45.568;11.894;2022-11-13T04:15:39;102415.25;;;8.96;79.47
57859;BME280;49153;45.568;11.894;2022-11-13T04:18:05;102401.28;;;8.94;79.36
57859;BME280;49153;45.568;11.894;2022-11-13T04:20:30;102383.34;;;8.81;79.23
57859;BME280;49153;45.568;11.894;2022-11-13T04:22:56;102420.25;;;9.03;80.02
57859;BME280;49153;45.568;11.894;2022-11-13T04:25:22;102414.13;;;9.03;79.53
57859;BME280;49153;45.568;11.894;2022-11-13T04:27:49;102415.59;;;9.10;79.47
57859;BME280;49153;45.568;11.894;2022-11-13T04:30:14;102426.03;;;9.13;79.53
57859;BME280;49153;45.568;11.894;2022-11-13T04:32:40;102420.63;;;9.16;79.57
57859;BME280;49153;45.568;11.894;2022-11-13T04:35:06;102421.44;;;9.18;79.82
57859;BME280;49153;45.568;11.894;2022-11-13T04:37:31;102424.63;;;9.26;79.65
57859;BME280;49153;45.568;11.894;2022-11-13T04:39:57;102418.25;;;9.31;79.26
57859;BME280;49153;45.568;11.894;2022-11-13T04:42:22;102412.28;;;9.28;78.91
57859;BME280;49153;45.568;11.894;2022-11-13T04:45:07;102412.50;;;9.22;78.89
57859;BME280;49153;45.568;11.894;2022-11-13T04:47:32;102405.91;;;9.10;78.98
57859;BME280;49153;45.568;11.894;2022-11-13T04:49:58;102405.19;;;9.07;78.76
57859;BME280;49153;45.568;11.894;2022-11-13T04:52:23;102417.53;;;9.05;79.23
57859;BME280;49153;45.568;11.894;2022-11-13T04:54:48;102411.59;;;9.00;79.06
57859;BME280;49153;45.568;11.894;2022-11-13T04:57:14;102415.84;;;9.04;79.03
57859;BME280;49153;45.568;11.894;2022-11-13T04:59:39;102422.97;;;9.00;79.23
57859;BME280;49153;45.568;11.894;2022-11-13T05:02:05;102427.38;;;9.00;78.75
57859;BME280;49153;45.568;11.894;2022-11-13T05:04:30;102424.06;;;8.95;79.14
57859;BME280;49153;45.568;11.894;2022-11-13T05:06:55;102423.16;;;8.96;78.96
57859;BME280;49153;45.568;11.894;2022-11-13T05:09:21;102414.72;;;8.87;78.57
57859;BME280;49153;45.568;11.894;2022-11-13T05:11:46;102432.94;;;8.92;78.97
57859;BME280;49153;45.568;11.894;2022-11-13T05:14:13;102407.22;;;8.77;79.06
57859;BME280;49153;45.568;11.894;2022-11-13T05:16:39;102413.25;;;8.79;79.16
57859;BME280;49153;45.568;11.894;2022-11-13T05:19:05;102422.81;;;8.81;79.31
57859;BME280;49153;45.568;11.894;2022-11-13T05:21:34;102420.25;;;8.80;79.39
57859;BME280;49153;45.568;11.894;2022-11-13T05:24:00;102426.38;;;8.80;79.13
57859;BME280;49153;45.568;11.894;2022-11-13T05:26:26;102427.97;;;8.84;79.19
57859;BME280;49153;45.568;11.894;2022-11-13T05:28:52;102412.88;;;8.66;79.40
57859;BME280;49153;45.568;11.894;2022-11-13T05:31:20;102416.19;;;8.71;79.26
57859;BME280;49153;45.568;11.894;2022-11-13T05:33:45;102421.38;;;8.73;79.35
57859;BME280;49153;45.568;11.894;2022-11-13T05:36:12;102427.44;;;8.75;79.40
57859;BME280;49153;45.568;11.894;2022-11-13T05:38:39;102412.66;;;8.72;79.37
57859;BME280;49153;45.568;11.894;2022-11-13T05:41:15;102418.63;;;8.76;79.71
57859;BME280;49153;45.568;11.894;2022-11-13T05:43:42;102421.50;;;8.70;79.23
57859;BME280;49153;45.568;11.894;2022-11-13T05:46:11;102421.00;;;8.59;79.10
57859;BME280;49153;45.568;11.894;2022-11-13T05:48:37;102403.97;;;8.45;79.42
57859;BME280;49153;45.568;11.894;2022-11-13T05:51:14;102420.50;;;8.49;79.60
57859;BME280;49153;45.568;11.894;2022-11-13T05:53:40;102431.09;;;8.46;79.98
57859;BME280;49153;45.568;11.894;2022-11-13T05:56:14;102431.09;;;8.46;79.79
57859;BME280;49153;45.568;11.894;2022-11-13T05:58:41;102431.22;;;8.43;80.32
57859;BME280;49153;45.568;11.894;2022-11-13T06:01:14;102417.50;;;8.35;79.99
57859;BME280;49153;45.568;11.894;2022-11-13T06:03:41;102440.66;;;8.48;80.53
57859;BME280;49153;45.568;11.894;2022-11-13T06:06:08;102421.03;;;8.34;79.82
57859;BME280;49153;45.568;11.894;2022-11-13T06:08:35;102415.78;;;8.34;79.98
57859;BME280;49153;45.568;11.894;2022-11-13T06:11:02;102444.84;;;8.54;80.49
57859;BME280;49153;45.568;11.894;2022-11-13T06:13:28;102452.88;;;8.51;80.13
57859;BME280;49153;45.568;11.894;2022-11-13T06:15:59;102423.53;;;8.37;80.49
57859;BME280;49153;45.568;11.894;2022-11-13T06:18:25;102455.50;;;8.51;80.88
57859;BME280;49153;45.568;11.894;2022-11-13T06:20:50;102434.53;;;8.48;80.37
57859;BME280;49153;45.568;11.894;2022-11-13T06:23:16;102459.28;;;8.67;80.59
57859;BME280;49153;45.568;11.894;2022-11-13T06:25:41;102455.03;;;8.63;80.52
57859;BME280;49153;45.568;11.894;2022-11-13T06:28:07;102462.50;;;8.75;80.53
57859;BME280;49153;45.568;11.894;2022-11-13T06:30:32;102467.78;;;8.75;80.36
57859;BME280;49153;45.568;11.894;2022-11-13T06:32:58;102479.81;;;8.82;79.88
57859;BME280;49153;45.568;11.894;2022-11-13T06:35:23;102474.81;;;8.75;79.91
57859;BME280;49153;45.568;11.894;2022-11-13T06:37:48;102492.03;;;8.83;79.78
57859;BME280;49153;45.568;11.894;2022-11-13T06:40:14;102494.66;;;8.83;80.22
57859;BME280;49153;45.568;11.894;2022-11-13T06:42:39;102477.47;;;8.73;79.73
57859;BME280;49153;45.568;11.894;2022-11-13T06:45:05;102481.06;;;8.72;80.08
57859;BME280;49153;45.568;11.894;2022-11-13T06:47:31;102474.31;;;8.64;79.98
57859;BME280;49153;45.568;11.894;2022-11-13T06:49:56;102509.50;;;8.86;80.22
57859;BME280;49153;45.568;11.894;2022-11-13T06:52:22;102526.94;;;8.88;80.23
57859;BME280;49153;45.568;11.894;2022-11-13T06:54:47;102511.50;;;8.78;80.31
57859;BME280;49153;45.568;11.894;2022-11-13T06:57:12;102520.09;;;8.83;80.64
57859;BME280;49153;45.568;11.894;2022-11-13T06:59:38;102537.31;;;8.93;80.36
57859;BME280;49153;45.568;11.894;2022-11-13T07:02:04;102530.97;;;8.99;81.00
57859;BME280;49153;45.568;11.894;2022-11-13T07:04:29;102506.91;;;8.84;80.76
57859;BME280;49153;45.568;11.894;2022-11-13T07:06:55;102536.94;;;9.04;81.10
57859;BME280;49153;45.568;11.894;2022-11-13T07:09:20;102528.97;;;9.05;80.69
57859;BME280;49153;45.568;11.894;2022-11-13T07:11:45;102506.34;;;9.00;81.02
57859;BME280;49153;45.568;11.894;2022-11-13T07:14:11;102518.03;;;9.16;81.26
57859;BME280;49153;45.568;11.894;2022-11-13T07:16:37;102507.28;;;9.22;81.39
57859;BME280;49153;45.568;11.894;2022-11-13T07:19:03;102521.66;;;9.37;81.11
57859;BME280;49153;45.568;11.894;2022-11-13T07:21:29;102531.00;;;9.45;81.03
57859;BME280;49153;45.568;11.894;2022-11-13T07:23:54;102513.13;;;9.53;80.63
57859;BME280;49153;45.568;11.894;2022-11-13T07:26:20;102512.88;;;9.59;80.76
57859;BME280;49153;45.568;11.894;2022-11-13T07:28:47;102512.53;;;9.68;80.73
57859;BME280;49153;45.568;11.894;2022-11-13T07:31:13;102514.88;;;9.76;80.40
57859;BME280;49153;45.568;11.894;2022-11-13T07:33:39;102497.28;;;9.77;80.54
57859;BME280;49153;45.568;11.894;2022-11-13T07:36:05;102511.56;;;9.93;80.31
57859;BME280;49153;45.568;11.894;2022-11-13T07:38:30;102489.13;;;9.83;80.50
57859;BME280;49153;45.568;11.894;2022-11-13T07:40:57;102518.19;;;10.03;80.66
57859;BME280;49153;45.568;11.894;2022-11-13T07:43:23;102517.69;;;10.15;80.21
57859;BME280;49153;45.568;11.894;2022-11-13T07:45:49;102502.84;;;10.12;80.57
57859;BME280;49153;45.568;11.894;2022-11-13T07:48:19;102512.84;;;10.26;80.47
57859;BME280;49153;45.568;11.894;2022-11-13T07:50:45;102508.84;;;10.38;79.75
57859;BME280;49153;45.568;11.894;2022-11-13T07:53:11;102505.81;;;10.47;80.32
57859;BME280;49153;45.568;11.894;2022-11-13T07:55:36;102512.38;;;10.58;79.33
57859;BME280;49153;45.568;11.894;2022-11-13T07:58:03;102513.41;;;10.75;79.56
57859;BME280;49153;45.568;11.894;2022-11-13T08:00:30;102507.03;;;10.80;79.38
57859;BME280;49153;45.568;11.894;2022-11-13T08:02:56;102496.84;;;10.91;78.99
57859;BME280;49153;45.568;11.894;2022-11-13T08:05:21;102506.66;;;11.08;78.80
57859;BME280;49153;45.568;11.894;2022-11-13T08:07:51;102504.25;;;11.22;78.12
57859;BME280;49153;45.568;11.894;2022-11-13T08:10:17;102496.69;;;11.33;78.04
57859;BME280;49153;45.568;11.894;2022-11-13T08:12:43;102497.84;;;11.47;77.86
57859;BME280;49153;45.568;11.894;2022-11-13T08:15:09;102496.56;;;11.55;77.64
57859;BME280;49153;45.568;11.894;2022-11-13T08:17:35;102499.38;;;11.69;77.46
57859;BME280;49153;45.568;11.894;2022-11-13T08:20:00;102502.06;;;11.88;77.19
57859;BME280;49153;45.568;11.894;2022-11-13T08:22:25;102502.41;;;11.99;77.03
57859;BME280;49153;45.568;11.894;2022-11-13T08:24:51;102503.50;;;12.12;75.69
57859;BME280;49153;45.568;11.894;2022-11-13T08:27:20;102497.53;;;12.26;74.63
57859;BME280;49153;45.568;11.894;2022-11-13T08:29:47;102485.78;;;12.32;74.52
57859;BME280;49153;45.568;11.894;2022-11-13T08:32:17;102488.59;;;12.46;70.99
57859;BME280;49153;45.568;11.894;2022-11-13T08:34:42;102483.91;;;12.51;70.09
57859;BME280;49153;45.568;11.894;2022-11-13T08:37:08;102479.31;;;12.54;69.42
57859;BME280;49153;45.568;11.894;2022-11-13T08:39:34;102493.41;;;12.72;69.76
57859;BME280;49153;45.568;11.894;2022-11-13T08:42:03;102506.94;;;12.83;69.29
57859;BME280;49153;45.568;11.894;2022-11-13T08:44:29;102497.88;;;12.87;68.54
57859;BME280;49153;45.568;11.894;2022-11-13T08:46:55;102499.91;;;12.99;68.65
57859;BME280;49153;45.568;11.894;2022-11-13T08:49:20;102490.06;;;13.01;68.78
57859;BME280;49153;45.568;11.894;2022-11-13T08:51:45;102484.16;;;13.14;68.81
57859;BME280;49153;45.568;11.894;2022-11-13T08:54:11;102479.13;;;13.25;68.58
57859;BME280;49153;45.568;11.894;2022-11-13T08:56:36;102480.59;;;13.30;67.16
57859;BME280;49153;45.568;11.894;2022-11-13T08:59:02;102477.41;;;13.39;66.98
57859;BME280;49153;45.568;11.894;2022-11-13T09:01:27;102471.00;;;13.43;66.72
57859;BME280;49153;45.568;11.894;2022-11-13T09:03:53;102476.50;;;13.56;65.99
57859;BME280;49153;45.568;11.894;2022-11-13T09:06:18;102481.38;;;13.64;65.66
57859;BME280;49153;45.568;11.894;2022-11-13T09:08:43;102472.22;;;13.69;65.10
57859;BME280;49153;45.568;11.894;2022-11-13T09:11:09;102463.16;;;13.73;65.29
57859;BME280;49153;45.568;11.894;2022-11-13T09:13:34;102463.56;;;13.81;64.30
57859;BME280;49153;45.568;11.894;2022-11-13T09:16:01;102457.91;;;13.87;63.62
57859;BME280;49153;45.568;11.894;2022-11-13T09:18:27;102459.28;;;13.94;63.89
57859;BME280;49153;45.568;11.894;2022-11-13T09:20:53;102451.03;;;13.99;65.30
57859;BME280;49153;45.568;11.894;2022-11-13T09:23:19;102447.56;;;14.13;63.71
57859;BME280;49153;45.568;11.894;2022-11-13T09:25:44;102433.34;;;14.14;63.13
57859;BME280;49153;45.568;11.894;2022-11-13T09:28:09;102447.63;;;14.27;62.99
57859;BME280;49153;45.568;11.894;2022-11-13T09:30:37;102446.31;;;14.34;62.63
57859;BME280;49153;45.568;11.894;2022-11-13T09:33:03;102448.47;;;14.43;63.55
57859;BME280;49153;45.568;11.894;2022-11-13T09:35:30;102444.47;;;14.50;62.93
57859;BME280;49153;45.568;11.894;2022-11-13T09:38:01;102439.66;;;14.57;62.41
57859;BME280;49153;45.568;11.894;2022-11-13T09:40:34;102448.84;;;14.65;61.50
57859;BME280;49153;45.568;11.894;2022-11-13T09:43:02;102453.06;;;14.69;61.52
57859;BME280;49153;45.568;11.894;2022-11-13T09:45:29;102446.59;;;14.73;60.70
57859;BME280;49153;45.568;11.894;2022-11-13T09:48:03;102440.91;;;14.79;61.20
57859;BME280;49153;45.568;11.894;2022-11-13T09:50:31;102454.41;;;14.91;61.32
57859;BME280;49153;45.568;11.894;2022-11-13T09:52:57;102459.13;;;15.00;61.57
57859;BME280;49153;45.568;11.894;2022-11-13T09:55:27;102462.28;;;15.06;60.92
57859;BME280;49153;45.568;11.894;2022-11-13T10:00:26;102473.47;;;15.11;59.58
57859;BME280;49153;45.568;11.894;2022-11-13T10:05:33;102477.72;;;15.14;58.73
57859;BME280;49153;45.568;11.894;2022-11-13T10:08:22;102456.63;;;15.25;59.15
57859;BME280;49153;45.568;11.894;2022-11-13T10:11:08;102453.13;;;15.25;58.13
57859;BME280;49153;45.568;11.894;2022-11-13T10:13:57;102442.47;;;15.25;58.43
57859;BME280;49153;45.568;11.894;2022-11-13T10:16:31;102447.72;;;15.26;59.55
57859;BME280;49153;45.568;11.894;2022-11-13T10:24:49;102440.09;;;15.34;59.71
57859;BME280;49153;45.568;11.894;2022-11-13T10:27:16;102428.31;;;15.38;60.11
57859;BME280;49153;45.568;11.894;2022-11-13T10:29:43;102421.63;;;15.45;59.15
57859;BME280;49153;45.568;11.894;2022-11-13T10:32:24;102418.69;;;15.50;59.93
57859;BME280;49153;45.568;11.894;2022-11-13T10:40:26;102420.72;;;16.00;59.68
57859;BME280;49153;45.568;11.894;2022-11-13T10:42:52;102417.19;;;15.99;57.99
57859;BME280;49153;45.568;11.894;2022-11-13T10:45:20;102416.00;;;15.91;58.16
57859;BME280;49153;45.568;11.894;2022-11-13T10:47:48;102407.91;;;15.92;58.86
57859;BME280;49153;45.568;11.894;2022-11-13T10:50:21;102412.38;;;15.92;57.46
57859;BME280;49153;45.568;11.894;2022-11-13T10:52:48;102407.59;;;15.97;57.18
57859;BME280;49153;45.568;11.894;2022-11-13T10:58:00;102413.91;;;15.96;57.57
57859;BME280;49153;45.568;11.894;2022-11-13T11:02:51;102406.03;;;16.07;58.27
57859;BME280;49153;45.568;11.894;2022-11-13T11:05:19;102397.53;;;16.15;58.04
57859;BME280;49153;45.568;11.894;2022-11-13T11:07:45;102396.47;;;16.17;57.00
57859;BME280;49153;45.568;11.894;2022-11-13T11:10:21;102384.00;;;16.18;57.24
57859;BME280;49153;45.568;11.894;2022-11-13T11:12:55;102378.38;;;16.22;57.58
57859;BME280;49153;45.568;11.894;2022-11-13T11:15:25;102373.78;;;16.24;56.89
57859;BME280;49153;45.568;11.894;2022-11-13T11:18:01;102366.09;;;16.20;55.71
57859;BME280;49153;45.568;11.894;2022-11-13T11:20:48;102366.88;;;16.22;56.20
57859;BME280;49153;45.568;11.894;2022-11-13T11:26:28;102351.63;;;16.36;56.62
57859;BME280;49153;45.568;11.894;2022-11-13T11:31:55;102344.59;;;16.48;56.38
57859;BME280;49153;45.568;11.894;2022-11-13T11:34:42;102333.28;;;16.44;56.87
57859;BME280;49153;45.568;11.894;2022-11-13T11:37:17;102328.94;;;16.31;55.77
57859;BME280;49153;45.568;11.894;2022-11-13T11:39:50;102327.44;;;16.27;55.73
57859;BME280;49153;45.568;11.894;2022-11-13T11:45:23;102333.09;;;16.35;56.37
57859;BME280;49153;45.568;11.894;2022-11-13T11:47:49;102334.25;;;16.43;55.96
57859;BME280;49153;45.568;11.894;2022-11-13T11:50:27;102315.63;;;16.43;55.50
57859;BME280;49153;45.568;11.894;2022-11-13T11:53:09;102325.09;;;16.47;54.76
57859;BME280;49153;45.568;11.894;2022-11-13T11:55:49;102315.28;;;16.61;55.80
57859;BME280;49153;45.568;11.894;2022-11-13T12:01:12;102288.22;;;16.54;54.16
57859;BME280;49153;45.568;11.894;2022-11-13T12:06:41;102287.41;;;16.28;55.63
57859;BME280;49153;45.568;11.894;2022-11-13T12:09:46;102289.09;;;16.29;56.45
57859;BME280;49153;45.568;11.894;2022-11-13T12:15:08;102290.56;;;16.46;56.81
57859;BME280;49153;45.568;11.894;2022-11-13T12:20:24;102282.47;;;16.60;56.03
57859;BME280;49153;45.568;11.894;2022-11-13T12:23:01;102280.44;;;16.64;55.65
57859;BME280;49153;45.568;11.894;2022-11-13T12:28:20;102248.22;;;16.67;55.85
57859;BME280;49153;45.568;11.894;2022-11-13T12:36:08;102248.69;;;16.61;54.08
57859;BME280;49153;45.568;11.894;2022-11-13T12:41:39;102241.66;;;16.60;55.09
57859;BME280;49153;45.568;11.894;2022-11-13T12:44:19;102234.28;;;16.51;55.34
57859;BME280;49153;45.568;11.894;2022-11-13T12:46:47;102246.66;;;16.52;55.81
57859;BME280;49153;45.568;11.894;2022-11-13T12:52:01;102222.56;;;16.53;55.42
57859;BME280;49153;45.568;11.894;2022-11-13T12:54:32;102216.06;;;16.44;56.22
57859;BME280;49153;45.568;11.894;2022-11-13T12:57:24;102225.56;;;16.48;56.45
57859;BME280;49153;45.568;11.894;2022-11-13T12:59:57;102216.38;;;16.53;56.91
57859;BME280;49153;45.568;11.894;2022-11-13T13:02:47;102211.88;;;16.66;56.16
57859;BME280;49153;45.568;11.894;2022-11-13T13:05:56;102209.53;;;16.74;56.31
57859;BME280;49153;45.568;11.894;2022-11-13T13:08:53;102219.34;;;16.73;55.04
57859;BME280;49153;45.568;11.894;2022-11-13T13:11:27;102221.19;;;16.60;54.89
57859;BME280;49153;45.568;11.894;2022-11-13T13:17:24;102209.06;;;16.43;55.38
57859;BME280;49153;45.568;11.894;2022-11-13T13:19:59;102212.78;;;16.41;56.29
57859;BME280;49153;45.568;11.894;2022-11-13T13:22:32;102211.50;;;16.34;56.93
57859;BME280;49153;45.568;11.894;2022-11-13T13:25:04;102208.22;;;16.30;56.50
57859;BME280;49153;45.568;11.894;2022-11-13T13:27:36;102203.00;;;16.29;57.12
57859;BME280;49153;45.568;11.894;2022-11-13T13:30:21;102201.75;;;16.22;56.83
57859;BME280;49153;45.568;11.894;2022-11-13T13:35:22;102207.63;;;16.14;57.41
57859;BME280;49153;45.568;11.894;2022-11-13T13:43:04;102207.09;;;16.22;59.10
57859;BME280;49153;45.568;11.894;2022-11-13T13:46:03;102206.66;;;16.28;58.72
57859;BME280;49153;45.568;11.894;2022-11-13T13:48:31;102214.09;;;16.35;59.03
57859;BME280;49153;45.568;11.894;2022-11-13T13:51:13;102211.22;;;16.38;58.61
57859;BME280;49153;45.568;11.894;2022-11-13T13:53:40;102211.91;;;16.53;59.31
57859;BME280;49153;45.568;11.894;2022-11-13T13:56:09;102215.06;;;16.71;59.54
57859;BME280;49153;45.568;11.894;2022-11-13T13:58:36;102214.28;;;16.81;59.01